sensor_id;sensor_type;location;lat;lon;timestamp;P1;durP1;ratioP1;P2;durP2;ratioP2
815;SDS011;25928;51.062;13.752;2023-03-01T00:01:21;25.97;;;20.67;;
815;SDS011;25928;51.062;13.752;2023-03-01T00:03:49;29.50;;;19.23;;
815;SDS011;25928;51.062;13.752;2023-03-01T00:06:15;30.03;;;20.27;;
815;SDS011;25928;51.062;13.752;2023-03-01T00:08:40;30.03;;;22.47;;
815;SDS011;25928;51.062;13.752;2023-03-01T00:11:11;26.87;;;19.30;;
815;SDS011;25928;51.062;13.752;2023-03-01T00:13:38;29.60;;;19.30;;
815;SDS011;25928;51.062;13.752;2023-03-01T00:16:05;27.80;;;19.50;;
815;SDS011;25928;51.062;13.752;2023-03-01T00:18:32;27.50;;;19.33;;
815;SDS011;25928;51.062;13.752;2023-03-01T00:20:58;29.00;;;19.37;;
815;SDS011;25928;51.062;13.752;2023-03-01T00:23:24;25.93;;;19.47;;
815;SDS011;25928;51.062;13.752;2023-03-01T00:25:51;27.30;;;19.50;;
815;SDS011;25928;51.062;13.752;2023-03-01T00:28:17;31.90;;;18.93;;
815;SDS011;25928;51.062;13.752;2023-03-01T00:30:44;29.83;;;20.73;;
815;SDS011;25928;51.062;13.752;2023-03-01T00:33:10;27.57;;;18.40;;
815;SDS011;25928;51.062;13.752;2023-03-01T00:35:35;28.33;;;19.83;;
815;SDS011;25928;51.062;13.752;2023-03-01T00:38:01;30.80;;;20.27;;
815;SDS011;25928;51.062;13.752;2023-03-01T00:40:28;30.10;;;22.10;;
815;SDS011;25928;51.062;13.752;2023-03-01T00:42:54;32.07;;;20.30;;
815;SDS011;25928;51.062;13.752;2023-03-01T00:45:20;26.70;;;18.67;;
815;SDS011;25928;51.062;13.752;2023-03-01T00:47:46;28.80;;;20.53;;
815;SDS011;25928;51.062;13.752;2023-03-01T00:50:13;25.83;;;19.30;;
815;SDS011;25928;51.062;13.752;2023-03-01T00:52:39;26.60;;;19.70;;
815;SDS011;25928;51.062;13.752;2023-03-01T00:55:05;29.23;;;19.93;;
815;SDS011;25928;51.062;13.752;2023-03-01T00:57:31;30.67;;;20.63;;
815;SDS011;25928;51.062;13.752;2023-03-01T00:59:57;25.93;;;17.40;;
815;SDS011;25928;51.062;13.752;2023-03-01T01:02:22;23.60;;;18.67;;
815;SDS011;25928;51.062;13.752;2023-03-01T01:04:48;26.97;;;18.10;;
815;SDS011;25928;51.062;13.752;2023-03-01T01:07:14;22.70;;;16.73;;
815;SDS011;25928;51.062;13.752;2023-03-01T01:09:40;21.47;;;16.10;;
815;SDS011;25928;51.062;13.752;2023-03-01T01:12:06;21.80;;;17.00;;
815;SDS011;25928;51.062;13.752;2023-03-01T01:14:32;22.90;;;16.67;;
815;SDS011;25928;51.062;13.752;2023-03-01T01:16:58;26.57;;;15.77;;
815;SDS011;25928;51.062;13.752;2023-03-01T01:19:25;29.00;;;16.30;;
815;SDS011;25928;51.062;13.752;2023-03-01T01:21:51;21.33;;;15.93;;
815;SDS011;25928;51.062;13.752;2023-03-01T01:24:17;24.20;;;16.63;;
815;SDS011;25928;51.062;13.752;2023-03-01T01:26:43;21.80;;;16.07;;
815;SDS011;25928;51.062;13.752;2023-03-01T01:29:09;23.97;;;15.43;;
815;SDS011;25928;51.062;13.752;2023-03-01T01:31:36;21.80;;;15.80;;
815;SDS011;25928;51.062;13.752;2023-03-01T01:34:04;20.53;;;15.43;;
815;SDS011;25928;51.062;13.752;2023-03-01T01:36:33;23.50;;;17.00;;
815;SDS011;25928;51.062;13.752;2023-03-01T01:38:59;23.70;;;15.80;;
815;SDS011;25928;51.062;13.752;2023-03-01T01:41:26;21.70;;;16.93;;
815;SDS011;25928;51.062;13.752;2023-03-01T01:46:49;23.73;;;17.37;;
815;SDS011;25928;51.062;13.752;2023-03-01T01:50:03;22.67;;;17.00;;
815;SDS011;25928;51.062;13.752;2023-03-01T01:52:45;25.10;;;16.67;;
815;SDS011;25928;51.062;13.752;2023-03-01T01:55:08;19.73;;;14.57;;
815;SDS011;25928;51.062;13.752;2023-03-01T01:57:43;22.30;;;16.27;;
815;SDS011;25928;51.062;13.752;2023-03-01T02:00:19;26.10;;;15.73;;
815;SDS011;25928;51.062;13.752;2023-03-01T02:02:47;23.87;;;16.60;;
815;SDS011;25928;51.062;13.752;2023-03-01T02:08:01;23.90;;;16.17;;
815;SDS011;25928;51.062;13.752;2023-03-01T02:10:26;22.57;;;16.40;;
815;SDS011;25928;51.062;13.752;2023-03-01T02:12:54;23.13;;;17.13;;
815;SDS011;25928;51.062;13.752;2023-03-01T02:15:21;22.27;;;16.23;;
815;SDS011;25928;51.062;13.752;2023-03-01T02:17:48;25.60;;;17.93;;
815;SDS011;25928;51.062;13.752;2023-03-01T02:22:49;26.90;;;17.37;;
815;SDS011;25928;51.062;13.752;2023-03-01T02:30:25;27.20;;;17.77;;
815;SDS011;25928;51.062;13.752;2023-03-01T02:32:51;27.37;;;18.90;;
815;SDS011;25928;51.062;13.752;2023-03-01T02:35:19;23.17;;;17.47;;
815;SDS011;25928;51.062;13.752;2023-03-01T02:37:46;28.00;;;18.60;;
815;SDS011;25928;51.062;13.752;2023-03-01T02:40:17;30.27;;;17.43;;
815;SDS011;25928;51.062;13.752;2023-03-01T02:42:56;26.20;;;18.90;;
815;SDS011;25928;51.062;13.752;2023-03-01T02:45:23;25.93;;;16.43;;
815;SDS011;25928;51.062;13.752;2023-03-01T02:47:50;25.90;;;17.07;;
815;SDS011;25928;51.062;13.752;2023-03-01T02:55:44;25.73;;;17.00;;
815;SDS011;25928;51.062;13.752;2023-03-01T02:58:10;29.43;;;18.97;;
815;SDS011;25928;51.062;13.752;2023-03-01T03:00:37;24.87;;;18.47;;
815;SDS011;25928;51.062;13.752;2023-03-01T03:03:15;28.90;;;18.70;;
815;SDS011;25928;51.062;13.752;2023-03-01T03:05:44;28.47;;;18.60;;
815;SDS011;25928;51.062;13.752;2023-03-01T03:08:11;29.13;;;19.60;;
815;SDS011;25928;51.062;13.752;2023-03-01T03:10:38;28.97;;;20.17;;
815;SDS011;25928;51.062;13.752;2023-03-01T03:13:10;25.73;;;18.80;;
815;SDS011;25928;51.062;13.752;2023-03-01T03:15:37;25.60;;;17.03;;
815;SDS011;25928;51.062;13.752;2023-03-01T03:18:05;26.60;;;18.60;;
815;SDS011;25928;51.062;13.752;2023-03-01T03:20:33;28.60;;;18.53;;
815;SDS011;25928;51.062;13.752;2023-03-01T03:22:59;22.63;;;17.30;;
815;SDS011;25928;51.062;13.752;2023-03-01T03:25:26;25.17;;;17.37;;
815;SDS011;25928;51.062;13.752;2023-03-01T03:27:53;29.10;;;17.77;;
815;SDS011;25928;51.062;13.752;2023-03-01T03:30:21;24.10;;;16.40;;
815;SDS011;25928;51.062;13.752;2023-03-01T03:32:50;25.53;;;16.47;;
815;SDS011;25928;51.062;13.752;2023-03-01T03:35:32;21.73;;;15.33;;
815;SDS011;25928;51.062;13.752;2023-03-01T03:38:00;21.20;;;15.73;;
815;SDS011;25928;51.062;13.752;2023-03-01T03:43:02;23.63;;;15.03;;
815;SDS011;25928;51.062;13.752;2023-03-01T03:45:28;24.93;;;17.83;;
815;SDS011;25928;51.062;13.752;2023-03-01T03:47:54;23.17;;;16.80;;
815;SDS011;25928;51.062;13.752;2023-03-01T03:50:20;26.27;;;16.03;;
815;SDS011;25928;51.062;13.752;2023-03-01T03:52:45;22.30;;;16.07;;
815;SDS011;25928;51.062;13.752;2023-03-01T03:55:12;22.60;;;16.77;;
815;SDS011;25928;51.062;13.752;2023-03-01T03:57:38;23.63;;;16.53;;
815;SDS011;25928;51.062;13.752;2023-03-01T04:00:06;24.70;;;16.43;;
815;SDS011;25928;51.062;13.752;2023-03-01T04:02:40;23.77;;;17.00;;
815;SDS011;25928;51.062;13.752;2023-03-01T04:05:07;22.67;;;16.93;;
815;SDS011;25928;51.062;13.752;2023-03-01T04:07:34;23.07;;;15.80;;
815;SDS011;25928;51.062;13.752;2023-03-01T04:10:02;23.37;;;16.23;;
815;SDS011;25928;51.062;13.752;2023-03-01T04:12:28;30.67;;;18.23;;
815;SDS011;25928;51.062;13.752;2023-03-01T04:14:54;25.50;;;16.83;;
815;SDS011;25928;51.062;13.752;2023-03-01T04:17:20;23.07;;;15.37;;
815;SDS011;25928;51.062;13.752;2023-03-01T04:19:45;24.70;;;16.70;;
815;SDS011;25928;51.062;13.752;2023-03-01T04:22:14;27.20;;;17.10;;
815;SDS011;25928;51.062;13.752;2023-03-01T04:24:43;28.10;;;17.60;;
815;SDS011;25928;51.062;13.752;2023-03-01T04:27:10;22.53;;;15.40;;
815;SDS011;25928;51.062;13.752;2023-03-01T04:29:36;26.70;;;17.53;;
815;SDS011;25928;51.062;13.752;2023-03-01T04:32:02;26.13;;;17.93;;
815;SDS011;25928;51.062;13.752;2023-03-01T04:34:28;23.67;;;16.63;;
815;SDS011;25928;51.062;13.752;2023-03-01T04:36:54;23.57;;;17.70;;
815;SDS011;25928;51.062;13.752;2023-03-01T04:39:20;26.00;;;16.43;;
815;SDS011;25928;51.062;13.752;2023-03-01T04:41:46;24.70;;;16.80;;
815;SDS011;25928;51.062;13.752;2023-03-01T04:44:12;23.93;;;15.77;;
815;SDS011;25928;51.062;13.752;2023-03-01T04:46:37;25.77;;;16.60;;
815;SDS011;25928;51.062;13.752;2023-03-01T04:49:03;23.93;;;16.50;;
815;SDS011;25928;51.062;13.752;2023-03-01T04:51:30;27.73;;;17.40;;
815;SDS011;25928;51.062;13.752;2023-03-01T04:53:57;27.13;;;17.33;;
815;SDS011;25928;51.062;13.752;2023-03-01T04:56:23;25.83;;;17.23;;
815;SDS011;25928;51.062;13.752;2023-03-01T04:58:49;27.30;;;17.90;;
815;SDS011;25928;51.062;13.752;2023-03-01T05:01:18;28.00;;;17.87;;
815;SDS011;25928;51.062;13.752;2023-03-01T05:03:46;23.47;;;15.57;;
815;SDS011;25928;51.062;13.752;2023-03-01T05:06:14;28.53;;;18.67;;
815;SDS011;25928;51.062;13.752;2023-03-01T05:08:40;27.37;;;16.73;;
815;SDS011;25928;51.062;13.752;2023-03-01T05:11:07;26.40;;;16.33;;
815;SDS011;25928;51.062;13.752;2023-03-01T05:13:34;30.27;;;17.40;;
815;SDS011;25928;51.062;13.752;2023-03-01T05:16:03;28.47;;;17.30;;
815;SDS011;25928;51.062;13.752;2023-03-01T05:18:31;27.00;;;17.70;;
815;SDS011;25928;51.062;13.752;2023-03-01T05:21:16;29.77;;;18.23;;
815;SDS011;25928;51.062;13.752;2023-03-01T05:23:42;26.70;;;17.27;;
815;SDS011;25928;51.062;13.752;2023-03-01T05:26:08;26.80;;;18.83;;
815;SDS011;25928;51.062;13.752;2023-03-01T05:28:34;26.57;;;16.27;;
815;SDS011;25928;51.062;13.752;2023-03-01T05:31:00;25.43;;;16.40;;
815;SDS011;25928;51.062;13.752;2023-03-01T05:33:26;24.90;;;15.97;;
815;SDS011;25928;51.062;13.752;2023-03-01T05:35:52;27.50;;;16.93;;
815;SDS011;25928;51.062;13.752;2023-03-01T05:38:19;33.60;;;17.97;;
815;SDS011;25928;51.062;13.752;2023-03-01T05:40:46;28.63;;;17.43;;
815;SDS011;25928;51.062;13.752;2023-03-01T05:43:13;29.40;;;16.33;;
815;SDS011;25928;51.062;13.752;2023-03-01T05:45:40;24.13;;;16.70;;
815;SDS011;25928;51.062;13.752;2023-03-01T05:48:07;27.83;;;17.10;;
815;SDS011;25928;51.062;13.752;2023-03-01T05:50:34;33.43;;;18.47;;
815;SDS011;25928;51.062;13.752;2023-03-01T05:53:06;22.30;;;17.13;;
815;SDS011;25928;51.062;13.752;2023-03-01T05:55:34;29.13;;;17.70;;
815;SDS011;25928;51.062;13.752;2023-03-01T05:58:02;24.20;;;15.60;;
815;SDS011;25928;51.062;13.752;2023-03-01T06:00:29;28.57;;;17.40;;
815;SDS011;25928;51.062;13.752;2023-03-01T06:02:56;25.40;;;17.17;;
815;SDS011;25928;51.062;13.752;2023-03-01T06:05:23;25.57;;;17.27;;
815;SDS011;25928;51.062;13.752;2023-03-01T06:07:49;28.87;;;17.47;;
815;SDS011;25928;51.062;13.752;2023-03-01T06:10:15;23.37;;;16.67;;
815;SDS011;25928;51.062;13.752;2023-03-01T06:12:42;26.67;;;17.17;;
815;SDS011;25928;51.062;13.752;2023-03-01T06:15:09;21.77;;;16.33;;
815;SDS011;25928;51.062;13.752;2023-03-01T06:17:37;23.93;;;16.03;;
815;SDS011;25928;51.062;13.752;2023-03-01T06:20:07;22.07;;;17.17;;
815;SDS011;25928;51.062;13.752;2023-03-01T06:22:35;25.77;;;18.20;;
815;SDS011;25928;51.062;13.752;2023-03-01T06:25:01;32.40;;;17.70;;
815;SDS011;25928;51.062;13.752;2023-03-01T06:27:27;28.60;;;18.33;;
815;SDS011;25928;51.062;13.752;2023-03-01T06:29:52;30.83;;;17.83;;
815;SDS011;25928;51.062;13.752;2023-03-01T06:32:18;25.07;;;17.70;;
815;SDS011;25928;51.062;13.752;2023-03-01T06:34:44;30.23;;;18.97;;
815;SDS011;25928;51.062;13.752;2023-03-01T06:37:10;29.80;;;17.90;;
815;SDS011;25928;51.062;13.752;2023-03-01T06:39:36;24.77;;;17.60;;
815;SDS011;25928;51.062;13.752;2023-03-01T06:42:02;26.40;;;18.53;;
815;SDS011;25928;51.062;13.752;2023-03-01T06:44:28;27.40;;;17.60;;
815;SDS011;25928;51.062;13.752;2023-03-01T06:46:53;28.30;;;17.37;;
815;SDS011;25928;51.062;13.752;2023-03-01T06:49:19;25.90;;;17.10;;
815;SDS011;25928;51.062;13.752;2023-03-01T06:51:46;27.33;;;17.33;;
815;SDS011;25928;51.062;13.752;2023-03-01T06:54:12;23.10;;;16.27;;
815;SDS011;25928;51.062;13.752;2023-03-01T06:56:38;26.20;;;17.90;;
815;SDS011;25928;51.062;13.752;2023-03-01T06:59:04;29.80;;;17.83;;
815;SDS011;25928;51.062;13.752;2023-03-01T07:01:30;24.90;;;17.30;;
815;SDS011;25928;51.062;13.752;2023-03-01T07:03:56;25.87;;;16.90;;
815;SDS011;25928;51.062;13.752;2023-03-01T07:06:22;27.30;;;17.63;;
815;SDS011;25928;51.062;13.752;2023-03-01T07:08:48;28.60;;;16.50;;
815;SDS011;25928;51.062;13.752;2023-03-01T07:11:14;21.70;;;15.33;;
815;SDS011;25928;51.062;13.752;2023-03-01T07:13:40;31.30;;;16.60;;
815;SDS011;25928;51.062;13.752;2023-03-01T07:16:06;23.00;;;16.40;;
815;SDS011;25928;51.062;13.752;2023-03-01T07:18:32;27.63;;;16.93;;
815;SDS011;25928;51.062;13.752;2023-03-01T07:20:57;32.43;;;17.57;;
815;SDS011;25928;51.062;13.752;2023-03-01T07:23:23;26.93;;;16.70;;
815;SDS011;25928;51.062;13.752;2023-03-01T07:25:52;23.47;;;17.50;;
815;SDS011;25928;51.062;13.752;2023-03-01T07:28:18;25.13;;;17.50;;
815;SDS011;25928;51.062;13.752;2023-03-01T07:30:44;30.10;;;17.03;;
815;SDS011;25928;51.062;13.752;2023-03-01T07:33:10;23.33;;;17.10;;
815;SDS011;25928;51.062;13.752;2023-03-01T07:35:36;25.23;;;17.37;;
815;SDS011;25928;51.062;13.752;2023-03-01T07:38:01;25.13;;;17.70;;
815;SDS011;25928;51.062;13.752;2023-03-01T07:40:27;30.83;;;20.00;;
815;SDS011;25928;51.062;13.752;2023-03-01T07:42:56;29.83;;;18.27;;
815;SDS011;25928;51.062;13.752;2023-03-01T07:45:22;23.03;;;18.47;;
815;SDS011;25928;51.062;13.752;2023-03-01T07:47:50;27.87;;;19.17;;
815;SDS011;25928;51.062;13.752;2023-03-01T07:50:16;24.33;;;17.40;;
815;SDS011;25928;51.062;13.752;2023-03-01T07:52:44;26.00;;;18.60;;
815;SDS011;25928;51.062;13.752;2023-03-01T07:55:11;28.47;;;18.83;;
815;SDS011;25928;51.062;13.752;2023-03-01T07:57:36;26.60;;;18.50;;
815;SDS011;25928;51.062;13.752;2023-03-01T08:00:03;28.60;;;17.73;;
815;SDS011;25928;51.062;13.752;2023-03-01T08:02:29;28.40;;;17.50;;
815;SDS011;25928;51.062;13.752;2023-03-01T08:04:54;30.90;;;20.13;;
815;SDS011;25928;51.062;13.752;2023-03-01T08:07:20;26.07;;;19.47;;
815;SDS011;25928;51.062;13.752;2023-03-01T08:09:45;26.67;;;19.63;;
815;SDS011;25928;51.062;13.752;2023-03-01T08:12:11;23.73;;;18.10;;
815;SDS011;25928;51.062;13.752;2023-03-01T08:14:37;29.93;;;18.43;;
815;SDS011;25928;51.062;13.752;2023-03-01T08:17:02;24.17;;;19.40;;
815;SDS011;25928;51.062;13.752;2023-03-01T08:19:28;32.20;;;20.77;;
815;SDS011;25928;51.062;13.752;2023-03-01T08:21:54;26.90;;;18.30;;
815;SDS011;25928;51.062;13.752;2023-03-01T08:24:23;31.73;;;19.50;;
815;SDS011;25928;51.062;13.752;2023-03-01T08:26:48;25.40;;;19.00;;
815;SDS011;25928;51.062;13.752;2023-03-01T08:29:14;24.70;;;17.80;;
815;SDS011;25928;51.062;13.752;2023-03-01T08:31:40;25.97;;;20.80;;
815;SDS011;25928;51.062;13.752;2023-03-01T08:34:07;23.67;;;18.77;;
815;SDS011;25928;51.062;13.752;2023-03-01T08:36:39;32.13;;;20.40;;
815;SDS011;25928;51.062;13.752;2023-03-01T08:39:06;30.87;;;20.10;;
815;SDS011;25928;51.062;13.752;2023-03-01T08:41:33;25.57;;;19.90;;
815;SDS011;25928;51.062;13.752;2023-03-01T08:43:58;30.27;;;19.93;;
815;SDS011;25928;51.062;13.752;2023-03-01T08:46:25;24.27;;;17.83;;
815;SDS011;25928;51.062;13.752;2023-03-01T08:48:55;30.63;;;21.00;;
815;SDS011;25928;51.062;13.752;2023-03-01T08:51:21;28.43;;;20.00;;
815;SDS011;25928;51.062;13.752;2023-03-01T08:53:48;30.23;;;20.10;;
815;SDS011;25928;51.062;13.752;2023-03-01T08:56:13;28.80;;;21.97;;
815;SDS011;25928;51.062;13.752;2023-03-01T08:58:40;34.73;;;20.67;;
815;SDS011;25928;51.062;13.752;2023-03-01T09:01:10;31.40;;;19.73;;
815;SDS011;25928;51.062;13.752;2023-03-01T09:03:37;26.30;;;19.73;;
815;SDS011;25928;51.062;13.752;2023-03-01T09:06:03;24.77;;;19.60;;
815;SDS011;25928;51.062;13.752;2023-03-01T09:08:31;31.23;;;19.93;;
815;SDS011;25928;51.062;13.752;2023-03-01T09:11:03;30.10;;;21.63;;
815;SDS011;25928;51.062;13.752;2023-03-01T09:13:30;29.50;;;19.10;;
815;SDS011;25928;51.062;13.752;2023-03-01T09:16:00;26.50;;;21.13;;
815;SDS011;25928;51.062;13.752;2023-03-01T09:18:27;28.83;;;19.90;;
815;SDS011;25928;51.062;13.752;2023-03-01T09:21:00;26.23;;;20.23;;
815;SDS011;25928;51.062;13.752;2023-03-01T09:23:36;27.47;;;19.80;;
815;SDS011;25928;51.062;13.752;2023-03-01T09:26:05;25.80;;;20.63;;
815;SDS011;25928;51.062;13.752;2023-03-01T09:28:35;32.70;;;21.40;;
815;SDS011;25928;51.062;13.752;2023-03-01T09:31:01;28.70;;;20.00;;
815;SDS011;25928;51.062;13.752;2023-03-01T09:33:28;32.27;;;22.80;;
815;SDS011;25928;51.062;13.752;2023-03-01T09:36:02;27.40;;;20.33;;
815;SDS011;25928;51.062;13.752;2023-03-01T09:38:29;27.17;;;19.27;;
815;SDS011;25928;51.062;13.752;2023-03-01T09:40:55;26.90;;;20.17;;
815;SDS011;25928;51.062;13.752;2023-03-01T09:45:58;24.40;;;19.53;;
815;SDS011;25928;51.062;13.752;2023-03-01T09:48:29;24.83;;;20.00;;
815;SDS011;25928;51.062;13.752;2023-03-01T09:51:05;28.93;;;21.87;;
815;SDS011;25928;51.062;13.752;2023-03-01T09:53:39;32.37;;;21.70;;
815;SDS011;25928;51.062;13.752;2023-03-01T09:56:05;27.03;;;19.23;;
815;SDS011;25928;51.062;13.752;2023-03-01T10:01:38;28.87;;;20.40;;
815;SDS011;25928;51.062;13.752;2023-03-01T10:09:35;33.93;;;21.80;;
815;SDS011;25928;51.062;13.752;2023-03-01T10:12:04;30.30;;;20.10;;
815;SDS011;25928;51.062;13.752;2023-03-01T10:14:46;31.47;;;21.43;;
815;SDS011;25928;51.062;13.752;2023-03-01T10:17:37;25.63;;;19.03;;
815;SDS011;25928;51.062;13.752;2023-03-01T10:20:20;31.67;;;20.57;;
815;SDS011;25928;51.062;13.752;2023-03-01T10:22:50;25.43;;;18.37;;
815;SDS011;25928;51.062;13.752;2023-03-01T10:28:16;29.90;;;20.23;;
815;SDS011;25928;51.062;13.752;2023-03-01T10:30:42;30.10;;;19.83;;
815;SDS011;25928;51.062;13.752;2023-03-01T10:33:22;22.80;;;17.60;;
815;SDS011;25928;51.062;13.752;2023-03-01T10:35:51;27.30;;;19.27;;
815;SDS011;25928;51.062;13.752;2023-03-01T10:38:17;36.03;;;20.60;;
815;SDS011;25928;51.062;13.752;2023-03-01T10:40:56;25.33;;;18.70;;
815;SDS011;25928;51.062;13.752;2023-03-01T10:49:15;27.70;;;20.20;;
815;SDS011;25928;51.062;13.752;2023-03-01T10:51:46;26.20;;;20.40;;
815;SDS011;25928;51.062;13.752;2023-03-01T10:54:15;25.03;;;19.47;;
815;SDS011;25928;51.062;13.752;2023-03-01T10:56:50;24.90;;;17.80;;
815;SDS011;25928;51.062;13.752;2023-03-01T10:59:41;24.93;;;18.47;;
815;SDS011;25928;51.062;13.752;2023-03-01T11:02:17;30.93;;;18.23;;
815;SDS011;25928;51.062;13.752;2023-03-01T11:05:02;21.73;;;15.90;;
815;SDS011;25928;51.062;13.752;2023-03-01T11:07:47;23.33;;;15.63;;
815;SDS011;25928;51.062;13.752;2023-03-01T11:10:19;18.37;;;15.50;;
815;SDS011;25928;51.062;13.752;2023-03-01T11:12:50;26.27;;;16.67;;
815;SDS011;25928;51.062;13.752;2023-03-01T11:15:30;20.80;;;15.77;;
815;SDS011;25928;51.062;13.752;2023-03-01T11:17:56;19.77;;;16.40;;
815;SDS011;25928;51.062;13.752;2023-03-01T11:20:27;18.60;;;13.87;;
815;SDS011;25928;51.062;13.752;2023-03-01T11:23:01;18.33;;;15.50;;
815;SDS011;25928;51.062;13.752;2023-03-01T11:25:33;24.20;;;15.90;;
815;SDS011;25928;51.062;13.752;2023-03-01T11:28:01;19.47;;;14.77;;
815;SDS011;25928;51.062;13.752;2023-03-01T11:30:37;18.03;;;13.80;;
815;SDS011;25928;51.062;13.752;2023-03-01T11:33:16;16.87;;;13.93;;
815;SDS011;25928;51.062;13.752;2023-03-01T11:36:02;18.53;;;13.80;;
815;SDS011;25928;51.062;13.752;2023-03-01T11:38:32;18.23;;;14.00;;
815;SDS011;25928;51.062;13.752;2023-03-01T11:52:08;23.00;;;13.70;;
815;SDS011;25928;51.062;13.752;2023-03-01T11:58:00;16.10;;;12.60;;
815;SDS011;25928;51.062;13.752;2023-03-01T12:05:42;18.97;;;13.00;;
815;SDS011;25928;51.062;13.752;2023-03-01T12:08:41;18.60;;;12.60;;
815;SDS011;25928;51.062;13.752;2023-03-01T12:11:22;13.20;;;11.20;;
815;SDS011;25928;51.062;13.752;2023-03-01T12:31:09;18.07;;;13.50;;
815;SDS011;25928;51.062;13.752;2023-03-01T12:44:49;22.03;;;15.90;;
815;SDS011;25928;51.062;13.752;2023-03-01T12:50:20;25.77;;;15.30;;
815;SDS011;25928;51.062;13.752;2023-03-01T13:01:16;20.70;;;15.10;;
815;SDS011;25928;51.062;13.752;2023-03-01T13:04:00;23.00;;;15.03;;
815;SDS011;25928;51.062;13.752;2023-03-01T13:09:19;20.50;;;14.40;;
815;SDS011;25928;51.062;13.752;2023-03-01T13:12:02;18.83;;;14.13;;
815;SDS011;25928;51.062;13.752;2023-03-01T13:16:57;20.27;;;15.10;;
815;SDS011;25928;51.062;13.752;2023-03-01T13:19:26;23.70;;;15.27;;
815;SDS011;25928;51.062;13.752;2023-03-01T13:21:56;21.33;;;15.00;;
815;SDS011;25928;51.062;13.752;2023-03-01T13:24:25;21.17;;;15.80;;
815;SDS011;25928;51.062;13.752;2023-03-01T13:29:45;19.73;;;15.70;;
815;SDS011;25928;51.062;13.752;2023-03-01T13:32:31;21.03;;;14.97;;
815;SDS011;25928;51.062;13.752;2023-03-01T13:35:02;19.63;;;14.10;;
815;SDS011;25928;51.062;13.752;2023-03-01T13:37:36;16.87;;;14.53;;
815;SDS011;25928;51.062;13.752;2023-03-01T13:42:49;25.97;;;15.90;;
815;SDS011;25928;51.062;13.752;2023-03-01T13:45:23;21.10;;;13.90;;
815;SDS011;25928;51.062;13.752;2023-03-01T13:48:03;18.53;;;14.47;;
815;SDS011;25928;51.062;13.752;2023-03-01T13:50:48;18.40;;;13.50;;
815;SDS011;25928;51.062;13.752;2023-03-01T13:53:42;22.23;;;14.47;;
815;SDS011;25928;51.062;13.752;2023-03-01T13:58:49;21.60;;;16.10;;
815;SDS011;25928;51.062;13.752;2023-03-01T14:01:24;21.10;;;15.87;;
815;SDS011;25928;51.062;13.752;2023-03-01T14:03:52;21.90;;;15.67;;
815;SDS011;25928;51.062;13.752;2023-03-01T14:06:25;22.47;;;16.20;;
815;SDS011;25928;51.062;13.752;2023-03-01T14:09:00;20.73;;;15.10;;
815;SDS011;25928;51.062;13.752;2023-03-01T14:11:35;24.63;;;15.53;;
815;SDS011;25928;51.062;13.752;2023-03-01T14:17:27;22.30;;;15.10;;
815;SDS011;25928;51.062;13.752;2023-03-01T14:20:23;23.83;;;15.73;;
815;SDS011;25928;51.062;13.752;2023-03-01T14:22:58;24.17;;;16.67;;
815;SDS011;25928;51.062;13.752;2023-03-01T14:25:29;20.40;;;14.93;;
815;SDS011;25928;51.062;13.752;2023-03-01T14:27:59;20.93;;;14.10;;
815;SDS011;25928;51.062;13.752;2023-03-01T14:30:31;31.63;;;16.37;;
815;SDS011;25928;51.062;13.752;2023-03-01T14:33:02;17.53;;;14.83;;
815;SDS011;25928;51.062;13.752;2023-03-01T14:35:32;23.37;;;16.53;;
815;SDS011;25928;51.062;13.752;2023-03-01T14:37:59;23.57;;;16.20;;
815;SDS011;25928;51.062;13.752;2023-03-01T14:40:27;23.60;;;16.60;;
815;SDS011;25928;51.062;13.752;2023-03-01T14:42:59;19.90;;;14.07;;
815;SDS011;25928;51.062;13.752;2023-03-01T14:45:27;20.53;;;14.90;;
815;SDS011;25928;51.062;13.752;2023-03-01T14:47:54;22.07;;;14.97;;
815;SDS011;25928;51.062;13.752;2023-03-01T14:52:50;19.37;;;14.40;;
815;SDS011;25928;51.062;13.752;2023-03-01T14:55:19;20.23;;;14.47;;
815;SDS011;25928;51.062;13.752;2023-03-01T14:57:56;21.30;;;14.70;;
815;SDS011;25928;51.062;13.752;2023-03-01T15:00:27;19.83;;;14.53;;
815;SDS011;25928;51.062;13.752;2023-03-01T15:02:55;20.13;;;14.97;;
815;SDS011;25928;51.062;13.752;2023-03-01T15:05:29;18.60;;;13.47;;
815;SDS011;25928;51.062;13.752;2023-03-01T15:07:58;22.20;;;16.33;;
815;SDS011;25928;51.062;13.752;2023-03-01T15:10:32;20.37;;;14.07;;
815;SDS011;25928;51.062;13.752;2023-03-01T15:13:10;19.23;;;15.13;;
815;SDS011;25928;51.062;13.752;2023-03-01T15:15:37;16.73;;;13.13;;
815;SDS011;25928;51.062;13.752;2023-03-01T15:18:16;15.20;;;12.10;;
815;SDS011;25928;51.062;13.752;2023-03-01T15:20:44;17.53;;;13.77;;
815;SDS011;25928;51.062;13.752;2023-03-01T15:23:17;18.63;;;13.53;;
815;SDS011;25928;51.062;13.752;2023-03-01T15:25:43;18.70;;;13.40;;
815;SDS011;25928;51.062;13.752;2023-03-01T15:28:18;19.80;;;12.80;;
815;SDS011;25928;51.062;13.752;2023-03-01T15:30:45;19.40;;;13.80;;
815;SDS011;25928;51.062;13.752;2023-03-01T15:35:44;21.63;;;15.00;;
815;SDS011;25928;51.062;13.752;2023-03-01T15:41:26;20.23;;;14.10;;
815;SDS011;25928;51.062;13.752;2023-03-01T15:43:55;18.43;;;14.20;;
815;SDS011;25928;51.062;13.752;2023-03-01T15:46:29;22.97;;;13.30;;
815;SDS011;25928;51.062;13.752;2023-03-01T15:49:00;23.20;;;14.10;;
815;SDS011;25928;51.062;13.752;2023-03-01T15:51:35;14.67;;;13.03;;
815;SDS011;25928;51.062;13.752;2023-03-01T15:54:04;24.97;;;14.20;;
815;SDS011;25928;51.062;13.752;2023-03-01T15:56:35;20.63;;;13.97;;
815;SDS011;25928;51.062;13.752;2023-03-01T15:59:01;21.17;;;14.07;;
815;SDS011;25928;51.062;13.752;2023-03-01T16:01:27;21.80;;;14.20;;
815;SDS011;25928;51.062;13.752;2023-03-01T16:03:54;16.37;;;12.37;;
815;SDS011;25928;51.062;13.752;2023-03-01T16:06:19;17.73;;;14.00;;
815;SDS011;25928;51.062;13.752;2023-03-01T16:08:45;16.40;;;13.43;;
815;SDS011;25928;51.062;13.752;2023-03-01T16:11:13;15.97;;;13.63;;
815;SDS011;25928;51.062;13.752;2023-03-01T16:13:41;23.23;;;16.00;;
815;SDS011;25928;51.062;13.752;2023-03-01T16:16:07;18.70;;;12.90;;
815;SDS011;25928;51.062;13.752;2023-03-01T16:18:39;23.43;;;14.00;;
815;SDS011;25928;51.062;13.752;2023-03-01T16:21:05;27.93;;;17.27;;
815;SDS011;25928;51.062;13.752;2023-03-01T16:23:31;21.50;;;14.50;;
815;SDS011;25928;51.062;13.752;2023-03-01T16:26:00;15.83;;;12.50;;
815;SDS011;25928;51.062;13.752;2023-03-01T16:28:26;24.13;;;14.60;;
815;SDS011;25928;51.062;13.752;2023-03-01T16:30:52;15.43;;;13.30;;
815;SDS011;25928;51.062;13.752;2023-03-01T16:33:17;19.50;;;12.73;;
815;SDS011;25928;51.062;13.752;2023-03-01T16:35:43;28.43;;;18.80;;
815;SDS011;25928;51.062;13.752;2023-03-01T16:38:09;20.20;;;14.03;;
815;SDS011;25928;51.062;13.752;2023-03-01T16:40:35;20.67;;;12.90;;
815;SDS011;25928;51.062;13.752;2023-03-01T16:43:01;16.13;;;11.47;;
815;SDS011;25928;51.062;13.752;2023-03-01T16:45:27;16.60;;;12.40;;
815;SDS011;25928;51.062;13.752;2023-03-01T16:47:58;15.87;;;12.80;;
815;SDS011;25928;51.062;13.752;2023-03-01T16:50:24;15.23;;;12.33;;